createdAt,value
2022-10-14T16:28:54.775Z,30.13
2022-10-14T16:33:55.980Z,34.25
2022-10-14T16:36:26.612Z,31.42
2022-10-14T16:38:58.244Z,30.73
2022-10-14T16:41:29.319Z,30.48
2022-10-14T16:43:59.570Z,36.80
2022-10-14T16:46:43.350Z,34.13
2022-10-14T16:49:12.238Z,32.42
2022-10-14T16:51:41.292Z,36.10
2022-10-14T16:54:11.669Z,36.92
2022-10-14T16:59:28.554Z,31.10
2022-10-14T17:01:57.315Z,35.53
2022-10-14T17:04:26.903Z,34.97
2022-10-14T17:07:07.399Z,35.25
2022-10-14T17:09:39.546Z,34.05
2022-10-14T17:12:13.876Z,36.67
2022-10-14T17:14:44.811Z,36.88
2022-10-14T17:17:14.036Z,36.75
2022-10-14T17:19:43.153Z,35.17
2022-10-14T17:22:13.287Z,35.72
2022-10-14T17:24:42.288Z,37.95
2022-10-14T17:27:11.389Z,55.05
2022-10-14T17:29:40.197Z,36.08
2022-10-14T17:32:12.880Z,37.65
2022-10-14T17:34:41.387Z,38.67
2022-10-14T17:37:10.263Z,41.75
2022-10-14T17:39:39.375Z,38.25
2022-10-14T17:42:08.246Z,42.13
2022-10-14T17:44:43.388Z,45.35
2022-10-14T17:47:14.183Z,46.65
2022-10-14T17:49:43.395Z,41.63
2022-10-14T17:52:12.761Z,56.42
2022-10-14T17:54:43.962Z,46.22
2022-10-14T17:57:12.793Z,45.67
2022-10-14T17:59:43.293Z,44.22
2022-10-14T18:02:18.416Z,47.55
2022-10-14T18:04:48.265Z,48.65
2022-10-14T18:07:19.827Z,45.28
2022-10-14T18:09:49.334Z,47.78
2022-10-14T18:12:18.257Z,43.33
2022-10-14T18:14:47.187Z,52.38
2022-10-14T18:17:19.304Z,48.05
2022-10-14T18:22:21.414Z,51.38
2022-10-14T18:24:50.403Z,53.63
2022-10-14T18:27:19.298Z,52.90
2022-10-14T18:29:48.322Z,46.10
2022-10-14T18:32:19.030Z,50.67
2022-10-14T18:37:18.724Z,48.78
2022-10-14T18:39:47.619Z,53.28
2022-10-14T18:42:19.970Z,50.30
2022-10-14T18:44:49.985Z,53.90
2022-10-14T18:47:20.171Z,48.78
2022-10-14T18:49:49.893Z,48.17
2022-10-14T18:52:21.180Z,51.20
2022-10-14T18:54:51.677Z,49.35
2022-10-14T18:57:21.166Z,55.22
2022-10-14T18:59:51.348Z,50.55
2022-10-14T19:02:21.684Z,55.70
2022-10-14T19:04:50.197Z,50.15
2022-10-14T19:07:18.903Z,53.25
2022-10-14T19:09:48.181Z,53.88
2022-10-14T19:12:36.208Z,49.37
2022-10-14T19:15:05.831Z,54.53
2022-10-14T19:17:36.058Z,51.43
2022-10-14T19:20:08.453Z,46.17
2022-10-14T19:22:40.950Z,52.63
2022-10-14T19:25:10.408Z,48.78
2022-10-14T19:27:39.143Z,53.20
2022-10-14T19:30:09.245Z,51.00
2022-10-14T19:32:40.503Z,56.55
2022-10-14T19:35:09.731Z,51.83
2022-10-14T19:37:38.256Z,55.30
2022-10-14T19:40:08.125Z,66.05
2022-10-14T19:42:37.115Z,45.38
2022-10-14T19:45:06.484Z,52.90
2022-10-14T19:47:35.207Z,52.08
2022-10-14T19:50:06.118Z,49.97
2022-10-14T19:52:34.644Z,55.85
2022-10-14T19:55:03.407Z,55.30
2022-10-14T19:57:32.082Z,49.15
2022-10-14T20:00:00.820Z,53.35
2022-10-14T20:02:29.719Z,57.08
2022-10-14T20:04:58.405Z,50.42
2022-10-14T20:07:30.773Z,48.88
2022-10-14T20:10:02.586Z,54.47
2022-10-14T20:12:31.862Z,52.05
2022-10-14T20:15:00.507Z,58.20
2022-10-14T20:17:29.370Z,53.28
2022-10-14T20:19:58.256Z,60.80
2022-10-14T20:22:26.715Z,56.55
2022-10-14T20:24:57.017Z,57.58
2022-10-14T20:27:26.019Z,65.00
2022-10-14T20:29:55.139Z,51.95
2022-10-14T20:32:23.980Z,63.97
2022-10-14T20:34:52.434Z,58.10
2022-10-14T20:37:24.247Z,60.10
2022-10-14T20:39:57.467Z,68.18
2022-10-14T20:42:26.209Z,54.83
2022-10-14T20:44:55.657Z,60.15
2022-10-14T20:47:24.920Z,63.50
2022-10-14T20:49:53.602Z,62.58
2022-10-14T20:52:22.429Z,64.45
2022-10-14T20:54:51.292Z,63.83
2022-10-14T20:57:21.774Z,64.43
2022-10-14T21:02:21.064Z,69.28
2022-10-14T21:07:20.162Z,65.13
2022-10-14T21:09:50.510Z,66.57
2022-10-14T21:12:19.923Z,71.50
2022-10-14T21:14:51.841Z,82.83
2022-10-14T21:17:20.663Z,74.93
2022-10-14T21:19:49.638Z,69.82
2022-10-14T21:22:18.432Z,65.53
2022-10-14T21:24:47.070Z,71.30
2022-10-14T21:27:15.762Z,71.68
2022-10-14T21:29:44.588Z,66.38
2022-10-14T21:32:14.704Z,66.55
2022-10-14T21:34:43.090Z,73.40
2022-10-14T21:37:12.261Z,69.05
2022-10-14T21:39:41.423Z,72.88
2022-10-14T21:42:10.742Z,75.20
2022-10-14T21:44:39.535Z,71.60
2022-10-14T21:47:11.191Z,79.30
2022-10-14T21:49:41.061Z,78.47
2022-10-14T21:52:09.817Z,75.05
2022-10-14T21:54:38.616Z,82.90
2022-10-14T21:57:07.445Z,78.05
2022-10-14T21:59:36.298Z,76.07
2022-10-14T22:02:05.207Z,79.28
2022-10-14T22:04:37.437Z,78.57
2022-10-14T22:07:11.239Z,79.47
2022-10-14T22:09:42.729Z,75.43
2022-10-14T22:12:12.438Z,81.28
2022-10-14T22:14:41.498Z,87.50
2022-10-14T22:17:10.477Z,85.88
2022-10-14T22:19:40.683Z,83.78
2022-10-14T22:22:11.496Z,89.35
2022-10-14T22:24:40.295Z,83.53
2022-10-14T22:27:09.021Z,83.00
2022-10-14T22:29:37.911Z,85.80
2022-10-14T22:32:06.741Z,96.60
2022-10-14T22:34:35.308Z,80.85
2022-10-14T22:37:04.018Z,107.97
2022-10-14T22:39:34.342Z,82.82
2022-10-14T22:44:31.614Z,85.70
2022-10-14T22:47:00.359Z,90.43
2022-10-14T22:49:30.035Z,99.25
2022-10-14T22:51:58.821Z,101.72
2022-10-14T22:54:27.745Z,89.47
2022-10-14T22:56:58.086Z,92.90
2022-10-14T22:59:26.929Z,91.13
2022-10-14T23:01:55.557Z,101.22
2022-10-14T23:04:24.364Z,93.80
2022-10-14T23:09:24.328Z,92.82
2022-10-14T23:11:53.309Z,95.13
2022-10-14T23:14:23.503Z,100.65
2022-10-14T23:16:51.875Z,102.80
2022-10-14T23:19:20.756Z,96.78
2022-10-14T23:21:49.649Z,100.38
2022-10-14T23:24:18.446Z,104.90
2022-10-14T23:26:47.259Z,104.38
2022-10-14T23:29:15.918Z,114.10
2022-10-14T23:31:45.799Z,110.40
2022-10-14T23:34:15.545Z,115.22
2022-10-14T23:36:44.418Z,115.35
2022-10-14T23:39:13.267Z,114.47
2022-10-14T23:41:42.019Z,112.63
2022-10-14T23:44:12.122Z,108.85
2022-10-14T23:46:41.374Z,115.63
2022-10-14T23:49:25.406Z,108.28
2022-10-14T23:51:55.387Z,100.43
2022-10-14T23:54:24.323Z,108.32
2022-10-14T23:56:53.542Z,116.15
2022-10-14T23:59:22.571Z,119.57
